sensor_id;sensor_type;location;lat;lon;timestamp;P1;durP1;ratioP1;P2;durP2;ratioP2
58760;SDS011;44529;47.464;19.014;2022-12-29T00:00:50;25.27;;;16.33;;
58760;SDS011;44529;47.464;19.014;2022-12-29T00:03:52;24.92;;;16.50;;
58760;SDS011;44529;47.464;19.014;2022-12-29T00:06:55;22.48;;;16.23;;
58760;SDS011;44529;47.464;19.014;2022-12-29T00:09:57;22.00;;;14.95;;
58760;SDS011;44529;47.464;19.014;2022-12-29T00:12:59;23.08;;;15.75;;
58760;SDS011;44529;47.464;19.014;2022-12-29T00:16:20;23.08;;;15.77;;
58760;SDS011;44529;47.464;19.014;2022-12-29T00:19:23;25.27;;;15.00;;
58760;SDS011;44529;47.464;19.014;2022-12-29T00:22:44;27.23;;;15.73;;
58760;SDS011;44529;47.464;19.014;2022-12-29T00:26:08;26.27;;;15.38;;
58760;SDS011;44529;47.464;19.014;2022-12-29T00:29:34;23.42;;;15.60;;
58760;SDS011;44529;47.464;19.014;2022-12-29T00:32:55;23.27;;;15.18;;
58760;SDS011;44529;47.464;19.014;2022-12-29T00:36:32;21.35;;;15.07;;
58760;SDS011;44529;47.464;19.014;2022-12-29T00:39:39;25.80;;;15.45;;
58760;SDS011;44529;47.464;19.014;2022-12-29T00:43:00;23.73;;;16.20;;
58760;SDS011;44529;47.464;19.014;2022-12-29T00:46:21;23.83;;;16.25;;
58760;SDS011;44529;47.464;19.014;2022-12-29T00:49:23;24.52;;;16.70;;
58760;SDS011;44529;47.464;19.014;2022-12-29T00:52:32;23.87;;;16.55;;
58760;SDS011;44529;47.464;19.014;2022-12-29T00:55:37;24.75;;;16.73;;
58760;SDS011;44529;47.464;19.014;2022-12-29T00:58:42;26.55;;;17.08;;
58760;SDS011;44529;47.464;19.014;2022-12-29T01:01:44;26.37;;;16.67;;
58760;SDS011;44529;47.464;19.014;2022-12-29T01:04:47;23.67;;;16.73;;
58760;SDS011;44529;47.464;19.014;2022-12-29T01:07:50;22.80;;;16.17;;
58760;SDS011;44529;47.464;19.014;2022-12-29T01:11:02;24.20;;;16.55;;
58760;SDS011;44529;47.464;19.014;2022-12-29T01:14:07;22.17;;;15.75;;
58760;SDS011;44529;47.464;19.014;2022-12-29T01:17:09;21.52;;;16.40;;
58760;SDS011;44529;47.464;19.014;2022-12-29T01:20:11;22.87;;;16.40;;
58760;SDS011;44529;47.464;19.014;2022-12-29T01:23:15;26.23;;;17.05;;
58760;SDS011;44529;47.464;19.014;2022-12-29T01:26:19;27.95;;;17.30;;
58760;SDS011;44529;47.464;19.014;2022-12-29T01:29:22;24.40;;;16.17;;
58760;SDS011;44529;47.464;19.014;2022-12-29T01:32:24;22.85;;;16.08;;
58760;SDS011;44529;47.464;19.014;2022-12-29T01:35:27;24.10;;;15.65;;
58760;SDS011;44529;47.464;19.014;2022-12-29T01:38:32;23.27;;;15.98;;
58760;SDS011;44529;47.464;19.014;2022-12-29T01:41:34;25.08;;;15.75;;
58760;SDS011;44529;47.464;19.014;2022-12-29T01:44:56;22.40;;;15.38;;
58760;SDS011;44529;47.464;19.014;2022-12-29T01:48:02;21.77;;;15.05;;
58760;SDS011;44529;47.464;19.014;2022-12-29T01:51:07;24.58;;;14.57;;
58760;SDS011;44529;47.464;19.014;2022-12-29T01:54:11;23.02;;;15.80;;
58760;SDS011;44529;47.464;19.014;2022-12-29T01:57:20;20.73;;;15.07;;
58760;SDS011;44529;47.464;19.014;2022-12-29T02:00:28;23.20;;;15.35;;
58760;SDS011;44529;47.464;19.014;2022-12-29T02:03:30;20.90;;;14.38;;
58760;SDS011;44529;47.464;19.014;2022-12-29T02:06:36;19.55;;;14.27;;
58760;SDS011;44529;47.464;19.014;2022-12-29T02:09:43;20.77;;;14.70;;
58760;SDS011;44529;47.464;19.014;2022-12-29T02:12:50;21.85;;;14.18;;
58760;SDS011;44529;47.464;19.014;2022-12-29T02:15:58;23.87;;;15.70;;
58760;SDS011;44529;47.464;19.014;2022-12-29T02:33:17;21.77;;;14.43;;
58760;SDS011;44529;47.464;19.014;2022-12-29T02:39:46;22.20;;;14.80;;
58760;SDS011;44529;47.464;19.014;2022-12-29T02:42:59;21.35;;;14.50;;
58760;SDS011;44529;47.464;19.014;2022-12-29T02:46:12;21.17;;;14.68;;
58760;SDS011;44529;47.464;19.014;2022-12-29T02:49:33;20.02;;;14.90;;
58760;SDS011;44529;47.464;19.014;2022-12-29T02:55:49;22.27;;;15.45;;
58760;SDS011;44529;47.464;19.014;2022-12-29T02:58:51;25.67;;;15.60;;
58760;SDS011;44529;47.464;19.014;2022-12-29T03:09:26;24.63;;;15.50;;
58760;SDS011;44529;47.464;19.014;2022-12-29T03:16:24;23.00;;;16.15;;
58760;SDS011;44529;47.464;19.014;2022-12-29T03:19:36;23.50;;;15.77;;
58760;SDS011;44529;47.464;19.014;2022-12-29T03:22:44;22.02;;;15.60;;
58760;SDS011;44529;47.464;19.014;2022-12-29T03:25:52;23.92;;;15.25;;
58760;SDS011;44529;47.464;19.014;2022-12-29T03:28:58;23.67;;;16.77;;
58760;SDS011;44529;47.464;19.014;2022-12-29T03:32:02;23.73;;;16.67;;
58760;SDS011;44529;47.464;19.014;2022-12-29T03:35:07;23.70;;;15.32;;
58760;SDS011;44529;47.464;19.014;2022-12-29T03:38:16;25.50;;;16.05;;
58760;SDS011;44529;47.464;19.014;2022-12-29T03:41:23;23.90;;;15.52;;
58760;SDS011;44529;47.464;19.014;2022-12-29T03:44:38;24.60;;;15.63;;
58760;SDS011;44529;47.464;19.014;2022-12-29T03:47:43;22.33;;;16.15;;
58760;SDS011;44529;47.464;19.014;2022-12-29T03:50:46;25.00;;;15.75;;
58760;SDS011;44529;47.464;19.014;2022-12-29T03:53:49;25.48;;;16.30;;
58760;SDS011;44529;47.464;19.014;2022-12-29T03:56:51;21.45;;;14.98;;
58760;SDS011;44529;47.464;19.014;2022-12-29T03:59:55;20.27;;;15.48;;
58760;SDS011;44529;47.464;19.014;2022-12-29T04:02:57;25.70;;;16.42;;
58760;SDS011;44529;47.464;19.014;2022-12-29T04:06:00;21.37;;;15.30;;
58760;SDS011;44529;47.464;19.014;2022-12-29T04:09:03;23.35;;;15.68;;
58760;SDS011;44529;47.464;19.014;2022-12-29T04:12:07;23.60;;;14.95;;
58760;SDS011;44529;47.464;19.014;2022-12-29T04:15:09;26.50;;;16.23;;
58760;SDS011;44529;47.464;19.014;2022-12-29T04:18:12;23.73;;;16.15;;
58760;SDS011;44529;47.464;19.014;2022-12-29T04:21:15;23.33;;;16.05;;
58760;SDS011;44529;47.464;19.014;2022-12-29T04:24:19;22.40;;;16.92;;
58760;SDS011;44529;47.464;19.014;2022-12-29T04:27:23;23.87;;;16.12;;
58760;SDS011;44529;47.464;19.014;2022-12-29T04:30:26;22.10;;;15.90;;
58760;SDS011;44529;47.464;19.014;2022-12-29T04:33:29;25.23;;;17.08;;
58760;SDS011;44529;47.464;19.014;2022-12-29T04:36:32;23.35;;;16.60;;
58760;SDS011;44529;47.464;19.014;2022-12-29T04:39:35;22.48;;;16.02;;
58760;SDS011;44529;47.464;19.014;2022-12-29T04:42:38;25.48;;;17.17;;
58760;SDS011;44529;47.464;19.014;2022-12-29T04:45:45;24.52;;;16.55;;
58760;SDS011;44529;47.464;19.014;2022-12-29T04:48:49;25.12;;;17.20;;
58760;SDS011;44529;47.464;19.014;2022-12-29T04:51:52;25.27;;;16.17;;
58760;SDS011;44529;47.464;19.014;2022-12-29T04:54:54;25.15;;;17.62;;
58760;SDS011;44529;47.464;19.014;2022-12-29T04:57:57;27.05;;;17.75;;
58760;SDS011;44529;47.464;19.014;2022-12-29T05:01:00;26.58;;;17.40;;
58760;SDS011;44529;47.464;19.014;2022-12-29T05:04:03;24.00;;;16.80;;
58760;SDS011;44529;47.464;19.014;2022-12-29T05:07:06;27.55;;;18.30;;
58760;SDS011;44529;47.464;19.014;2022-12-29T05:10:09;27.37;;;18.33;;
58760;SDS011;44529;47.464;19.014;2022-12-29T05:13:12;27.73;;;17.92;;
58760;SDS011;44529;47.464;19.014;2022-12-29T05:16:16;25.23;;;17.80;;
58760;SDS011;44529;47.464;19.014;2022-12-29T05:19:19;21.83;;;16.52;;
58760;SDS011;44529;47.464;19.014;2022-12-29T05:22:22;33.00;;;18.70;;
58760;SDS011;44529;47.464;19.014;2022-12-29T05:25:25;25.17;;;17.15;;
58760;SDS011;44529;47.464;19.014;2022-12-29T05:28:27;22.23;;;16.62;;
58760;SDS011;44529;47.464;19.014;2022-12-29T05:31:31;25.33;;;16.77;;
58760;SDS011;44529;47.464;19.014;2022-12-29T05:34:35;22.90;;;17.30;;
58760;SDS011;44529;47.464;19.014;2022-12-29T05:37:37;27.05;;;17.55;;
58760;SDS011;44529;47.464;19.014;2022-12-29T05:40:40;22.87;;;16.10;;
58760;SDS011;44529;47.464;19.014;2022-12-29T05:43:43;25.42;;;17.05;;
58760;SDS011;44529;47.464;19.014;2022-12-29T05:46:45;24.70;;;17.15;;
58760;SDS011;44529;47.464;19.014;2022-12-29T05:49:49;28.08;;;17.08;;
58760;SDS011;44529;47.464;19.014;2022-12-29T05:52:52;24.98;;;17.40;;
58760;SDS011;44529;47.464;19.014;2022-12-29T05:55:54;24.70;;;17.58;;
58760;SDS011;44529;47.464;19.014;2022-12-29T05:58:56;27.02;;;17.73;;
58760;SDS011;44529;47.464;19.014;2022-12-29T06:01:59;26.00;;;18.27;;
58760;SDS011;44529;47.464;19.014;2022-12-29T06:05:02;24.33;;;18.30;;
58760;SDS011;44529;47.464;19.014;2022-12-29T06:08:05;28.98;;;18.12;;
58760;SDS011;44529;47.464;19.014;2022-12-29T06:11:08;27.20;;;19.08;;
58760;SDS011;44529;47.464;19.014;2022-12-29T06:14:12;27.23;;;18.00;;
58760;SDS011;44529;47.464;19.014;2022-12-29T06:17:15;25.62;;;19.02;;
58760;SDS011;44529;47.464;19.014;2022-12-29T06:20:18;26.48;;;19.08;;
58760;SDS011;44529;47.464;19.014;2022-12-29T06:23:20;29.87;;;19.17;;
58760;SDS011;44529;47.464;19.014;2022-12-29T06:26:23;26.42;;;19.35;;
58760;SDS011;44529;47.464;19.014;2022-12-29T06:29:25;26.30;;;19.08;;
58760;SDS011;44529;47.464;19.014;2022-12-29T06:32:29;24.27;;;18.33;;
58760;SDS011;44529;47.464;19.014;2022-12-29T06:35:34;26.08;;;19.12;;
58760;SDS011;44529;47.464;19.014;2022-12-29T06:38:36;29.17;;;18.42;;
58760;SDS011;44529;47.464;19.014;2022-12-29T06:41:38;32.67;;;19.92;;
58760;SDS011;44529;47.464;19.014;2022-12-29T06:44:41;31.25;;;20.37;;
58760;SDS011;44529;47.464;19.014;2022-12-29T06:47:44;29.92;;;19.90;;
58760;SDS011;44529;47.464;19.014;2022-12-29T06:50:46;27.95;;;19.20;;
58760;SDS011;44529;47.464;19.014;2022-12-29T06:53:48;28.58;;;19.27;;
58760;SDS011;44529;47.464;19.014;2022-12-29T06:56:51;29.15;;;19.10;;
58760;SDS011;44529;47.464;19.014;2022-12-29T06:59:53;25.58;;;19.55;;
58760;SDS011;44529;47.464;19.014;2022-12-29T07:02:57;28.02;;;19.45;;
58760;SDS011;44529;47.464;19.014;2022-12-29T07:06:00;34.20;;;20.70;;
58760;SDS011;44529;47.464;19.014;2022-12-29T07:09:02;30.58;;;21.08;;
58760;SDS011;44529;47.464;19.014;2022-12-29T07:12:05;30.20;;;20.65;;
58760;SDS011;44529;47.464;19.014;2022-12-29T07:15:08;29.63;;;19.80;;
58760;SDS011;44529;47.464;19.014;2022-12-29T07:18:10;29.45;;;20.48;;
58760;SDS011;44529;47.464;19.014;2022-12-29T07:21:13;30.50;;;20.90;;
58760;SDS011;44529;47.464;19.014;2022-12-29T07:24:15;30.25;;;20.35;;
58760;SDS011;44529;47.464;19.014;2022-12-29T07:27:17;28.48;;;19.62;;
58760;SDS011;44529;47.464;19.014;2022-12-29T07:30:20;29.08;;;19.92;;
58760;SDS011;44529;47.464;19.014;2022-12-29T07:33:22;34.60;;;21.08;;
58760;SDS011;44529;47.464;19.014;2022-12-29T07:36:25;27.05;;;20.35;;
58760;SDS011;44529;47.464;19.014;2022-12-29T07:39:35;30.92;;;21.67;;
58760;SDS011;44529;47.464;19.014;2022-12-29T07:42:37;32.75;;;21.40;;
58760;SDS011;44529;47.464;19.014;2022-12-29T07:45:41;36.05;;;22.15;;
58760;SDS011;44529;47.464;19.014;2022-12-29T07:48:44;33.42;;;21.20;;
58760;SDS011;44529;47.464;19.014;2022-12-29T07:51:46;34.38;;;21.30;;
58760;SDS011;44529;47.464;19.014;2022-12-29T07:54:48;36.67;;;21.48;;
58760;SDS011;44529;47.464;19.014;2022-12-29T07:57:54;35.17;;;22.65;;
58760;SDS011;44529;47.464;19.014;2022-12-29T08:00:57;32.05;;;22.65;;
58760;SDS011;44529;47.464;19.014;2022-12-29T08:04:00;34.75;;;22.55;;
58760;SDS011;44529;47.464;19.014;2022-12-29T08:07:02;31.98;;;21.92;;
58760;SDS011;44529;47.464;19.014;2022-12-29T08:10:05;33.08;;;22.30;;
58760;SDS011;44529;47.464;19.014;2022-12-29T08:13:08;30.20;;;22.27;;
58760;SDS011;44529;47.464;19.014;2022-12-29T08:16:10;33.63;;;22.55;;
58760;SDS011;44529;47.464;19.014;2022-12-29T08:19:13;34.95;;;22.80;;
58760;SDS011;44529;47.464;19.014;2022-12-29T08:22:16;35.85;;;23.45;;
58760;SDS011;44529;47.464;19.014;2022-12-29T08:25:18;31.50;;;21.45;;
58760;SDS011;44529;47.464;19.014;2022-12-29T08:28:21;31.42;;;22.02;;
58760;SDS011;44529;47.464;19.014;2022-12-29T08:31:24;32.05;;;22.48;;
58760;SDS011;44529;47.464;19.014;2022-12-29T08:34:27;35.63;;;22.77;;
58760;SDS011;44529;47.464;19.014;2022-12-29T08:37:29;35.95;;;22.67;;
58760;SDS011;44529;47.464;19.014;2022-12-29T08:40:33;31.98;;;22.65;;
58760;SDS011;44529;47.464;19.014;2022-12-29T08:43:36;37.70;;;23.12;;
58760;SDS011;44529;47.464;19.014;2022-12-29T08:46:38;34.25;;;22.42;;
58760;SDS011;44529;47.464;19.014;2022-12-29T08:49:41;34.75;;;22.95;;
58760;SDS011;44529;47.464;19.014;2022-12-29T08:52:43;31.55;;;22.62;;
58760;SDS011;44529;47.464;19.014;2022-12-29T08:55:45;36.30;;;24.08;;
58760;SDS011;44529;47.464;19.014;2022-12-29T08:58:49;34.95;;;22.80;;
58760;SDS011;44529;47.464;19.014;2022-12-29T09:01:52;34.38;;;23.33;;
58760;SDS011;44529;47.464;19.014;2022-12-29T09:04:55;35.78;;;23.90;;
58760;SDS011;44529;47.464;19.014;2022-12-29T09:07:59;39.30;;;25.05;;
58760;SDS011;44529;47.464;19.014;2022-12-29T09:14:20;36.08;;;24.20;;
58760;SDS011;44529;47.464;19.014;2022-12-29T09:17:23;34.63;;;23.83;;
58760;SDS011;44529;47.464;19.014;2022-12-29T09:20:45;36.60;;;24.55;;
58760;SDS011;44529;47.464;19.014;2022-12-29T09:23:47;37.85;;;24.67;;
58760;SDS011;44529;47.464;19.014;2022-12-29T09:26:50;36.95;;;24.52;;
58760;SDS011;44529;47.464;19.014;2022-12-29T09:29:53;39.22;;;24.55;;
58760;SDS011;44529;47.464;19.014;2022-12-29T09:32:55;36.28;;;24.83;;
58760;SDS011;44529;47.464;19.014;2022-12-29T09:35:58;37.00;;;25.90;;
58760;SDS011;44529;47.464;19.014;2022-12-29T09:39:00;38.15;;;25.60;;
58760;SDS011;44529;47.464;19.014;2022-12-29T09:42:06;36.05;;;23.95;;
58760;SDS011;44529;47.464;19.014;2022-12-29T09:45:20;36.05;;;25.30;;
58760;SDS011;44529;47.464;19.014;2022-12-29T09:48:44;36.25;;;24.70;;
58760;SDS011;44529;47.464;19.014;2022-12-29T09:51:54;39.38;;;26.05;;
58760;SDS011;44529;47.464;19.014;2022-12-29T09:55:09;39.25;;;25.85;;
58760;SDS011;44529;47.464;19.014;2022-12-29T10:01:49;34.58;;;24.98;;
58760;SDS011;44529;47.464;19.014;2022-12-29T10:04:58;35.67;;;25.08;;
58760;SDS011;44529;47.464;19.014;2022-12-29T10:11:23;38.67;;;25.08;;
58760;SDS011;44529;47.464;19.014;2022-12-29T10:14:47;37.70;;;26.35;;
58760;SDS011;44529;47.464;19.014;2022-12-29T10:25:29;41.00;;;26.17;;
58760;SDS011;44529;47.464;19.014;2022-12-29T10:28:38;44.33;;;26.95;;
58760;SDS011;44529;47.464;19.014;2022-12-29T10:31:56;38.97;;;27.75;;
58760;SDS011;44529;47.464;19.014;2022-12-29T10:35:02;42.08;;;27.37;;
58760;SDS011;44529;47.464;19.014;2022-12-29T10:41:55;37.13;;;26.12;;
58760;SDS011;44529;47.464;19.014;2022-12-29T10:45:13;38.92;;;27.00;;
58760;SDS011;44529;47.464;19.014;2022-12-29T10:48:20;42.75;;;27.23;;
58760;SDS011;44529;47.464;19.014;2022-12-29T10:51:33;36.92;;;26.67;;
58760;SDS011;44529;47.464;19.014;2022-12-29T10:58:01;38.10;;;26.33;;
58760;SDS011;44529;47.464;19.014;2022-12-29T11:01:07;36.83;;;25.65;;
58760;SDS011;44529;47.464;19.014;2022-12-29T11:07:47;38.28;;;26.67;;
58760;SDS011;44529;47.464;19.014;2022-12-29T11:10:59;38.40;;;26.42;;
58760;SDS011;44529;47.464;19.014;2022-12-29T11:14:14;37.85;;;26.62;;
58760;SDS011;44529;47.464;19.014;2022-12-29T11:17:21;37.13;;;27.20;;
58760;SDS011;44529;47.464;19.014;2022-12-29T11:20:36;36.17;;;26.30;;
58760;SDS011;44529;47.464;19.014;2022-12-29T11:23:41;37.33;;;26.48;;
58760;SDS011;44529;47.464;19.014;2022-12-29T11:26:43;36.53;;;26.62;;
58760;SDS011;44529;47.464;19.014;2022-12-29T11:29:46;38.38;;;27.67;;
58760;SDS011;44529;47.464;19.014;2022-12-29T11:32:51;39.70;;;26.60;;
58760;SDS011;44529;47.464;19.014;2022-12-29T11:35:59;38.15;;;26.62;;
58760;SDS011;44529;47.464;19.014;2022-12-29T11:39:16;39.90;;;27.35;;
58760;SDS011;44529;47.464;19.014;2022-12-29T11:42:37;37.67;;;27.55;;
58760;SDS011;44529;47.464;19.014;2022-12-29T11:45:42;42.97;;;28.70;;
58760;SDS011;44529;47.464;19.014;2022-12-29T11:48:49;37.95;;;28.40;;
58760;SDS011;44529;47.464;19.014;2022-12-29T11:51:51;40.20;;;27.70;;
58760;SDS011;44529;47.464;19.014;2022-12-29T11:54:59;39.65;;;28.15;;
58760;SDS011;44529;47.464;19.014;2022-12-29T11:58:03;35.72;;;27.80;;
58760;SDS011;44529;47.464;19.014;2022-12-29T12:01:12;39.60;;;27.40;;
58760;SDS011;44529;47.464;19.014;2022-12-29T12:04:16;36.47;;;27.20;;
58760;SDS011;44529;47.464;19.014;2022-12-29T12:07:22;38.78;;;27.73;;
58760;SDS011;44529;47.464;19.014;2022-12-29T12:10:42;36.45;;;27.62;;
58760;SDS011;44529;47.464;19.014;2022-12-29T12:17:04;39.05;;;27.00;;
58760;SDS011;44529;47.464;19.014;2022-12-29T12:20:19;38.15;;;26.87;;
58760;SDS011;44529;47.464;19.014;2022-12-29T12:26:45;39.05;;;28.45;;
58760;SDS011;44529;47.464;19.014;2022-12-29T12:30:02;40.17;;;27.77;;
58760;SDS011;44529;47.464;19.014;2022-12-29T12:33:16;44.25;;;28.80;;
58760;SDS011;44529;47.464;19.014;2022-12-29T12:43:50;40.47;;;27.90;;
58760;SDS011;44529;47.464;19.014;2022-12-29T12:53:29;39.67;;;27.45;;
58760;SDS011;44529;47.464;19.014;2022-12-29T12:56:40;42.45;;;28.15;;
58760;SDS011;44529;47.464;19.014;2022-12-29T12:59:59;40.70;;;28.33;;
58760;SDS011;44529;47.464;19.014;2022-12-29T13:14:16;40.00;;;27.55;;
58760;SDS011;44529;47.464;19.014;2022-12-29T13:17:43;38.47;;;28.25;;
58760;SDS011;44529;47.464;19.014;2022-12-29T13:20:53;41.50;;;29.70;;
58760;SDS011;44529;47.464;19.014;2022-12-29T13:24:10;42.70;;;29.75;;
58760;SDS011;44529;47.464;19.014;2022-12-29T13:27:20;41.70;;;28.95;;
58760;SDS011;44529;47.464;19.014;2022-12-29T13:30:28;38.92;;;28.87;;
58760;SDS011;44529;47.464;19.014;2022-12-29T13:37:53;39.22;;;28.15;;
58760;SDS011;44529;47.464;19.014;2022-12-29T13:41:06;39.45;;;29.10;;
58760;SDS011;44529;47.464;19.014;2022-12-29T13:44:14;36.88;;;27.92;;
58760;SDS011;44529;47.464;19.014;2022-12-29T13:50:25;39.95;;;28.30;;
58760;SDS011;44529;47.464;19.014;2022-12-29T13:53:48;42.28;;;28.50;;
58760;SDS011;44529;47.464;19.014;2022-12-29T13:57:00;39.85;;;28.73;;
58760;SDS011;44529;47.464;19.014;2022-12-29T14:00:16;39.15;;;28.85;;
58760;SDS011;44529;47.464;19.014;2022-12-29T14:06:43;42.25;;;28.90;;
58760;SDS011;44529;47.464;19.014;2022-12-29T14:09:47;39.55;;;28.73;;
58760;SDS011;44529;47.464;19.014;2022-12-29T14:12:59;40.17;;;29.17;;
58760;SDS011;44529;47.464;19.014;2022-12-29T14:16:05;43.00;;;29.70;;
58760;SDS011;44529;47.464;19.014;2022-12-29T14:19:13;40.17;;;28.55;;
58760;SDS011;44529;47.464;19.014;2022-12-29T14:22:22;38.10;;;28.65;;
58760;SDS011;44529;47.464;19.014;2022-12-29T14:35:40;41.95;;;30.17;;
58760;SDS011;44529;47.464;19.014;2022-12-29T14:38:46;39.95;;;29.90;;
58760;SDS011;44529;47.464;19.014;2022-12-29T14:41:59;41.75;;;29.37;;
58760;SDS011;44529;47.464;19.014;2022-12-29T14:48:52;44.75;;;30.30;;
58760;SDS011;44529;47.464;19.014;2022-12-29T14:51:45;41.85;;;28.48;;
58760;SDS011;44529;47.464;19.014;2022-12-29T14:54:53;38.13;;;29.33;;
58760;SDS011;44529;47.464;19.014;2022-12-29T14:57:59;41.92;;;28.92;;
58760;SDS011;44529;47.464;19.014;2022-12-29T15:01:04;36.80;;;28.70;;
58760;SDS011;44529;47.464;19.014;2022-12-29T15:04:40;42.13;;;29.37;;
58760;SDS011;44529;47.464;19.014;2022-12-29T15:07:43;41.47;;;29.58;;
58760;SDS011;44529;47.464;19.014;2022-12-29T15:10:47;44.50;;;30.77;;
58760;SDS011;44529;47.464;19.014;2022-12-29T15:13:55;40.83;;;29.95;;
58760;SDS011;44529;47.464;19.014;2022-12-29T15:16:57;44.10;;;30.83;;
58760;SDS011;44529;47.464;19.014;2022-12-29T15:20:14;42.72;;;30.73;;
58760;SDS011;44529;47.464;19.014;2022-12-29T15:23:23;44.03;;;30.12;;
58760;SDS011;44529;47.464;19.014;2022-12-29T15:26:36;46.17;;;31.10;;
58760;SDS011;44529;47.464;19.014;2022-12-29T15:29:41;40.58;;;30.12;;
58760;SDS011;44529;47.464;19.014;2022-12-29T15:32:46;43.83;;;31.48;;
58760;SDS011;44529;47.464;19.014;2022-12-29T15:35:49;46.08;;;31.92;;
58760;SDS011;44529;47.464;19.014;2022-12-29T15:38:53;45.47;;;32.15;;
58760;SDS011;44529;47.464;19.014;2022-12-29T15:41:57;45.83;;;31.62;;
58760;SDS011;44529;47.464;19.014;2022-12-29T15:45:05;42.75;;;30.55;;
58760;SDS011;44529;47.464;19.014;2022-12-29T15:48:23;42.62;;;29.90;;
58760;SDS011;44529;47.464;19.014;2022-12-29T15:51:29;39.30;;;29.45;;
58760;SDS011;44529;47.464;19.014;2022-12-29T15:54:35;47.67;;;31.67;;
58760;SDS011;44529;47.464;19.014;2022-12-29T15:57:41;42.22;;;29.75;;
58760;SDS011;44529;47.464;19.014;2022-12-29T16:00:49;43.10;;;30.88;;
58760;SDS011;44529;47.464;19.014;2022-12-29T16:03:55;44.33;;;31.57;;
58760;SDS011;44529;47.464;19.014;2022-12-29T16:07:01;46.50;;;30.98;;
58760;SDS011;44529;47.464;19.014;2022-12-29T16:10:05;44.70;;;30.80;;
58760;SDS011;44529;47.464;19.014;2022-12-29T16:13:19;47.85;;;32.22;;
58760;SDS011;44529;47.464;19.014;2022-12-29T16:16:29;45.10;;;31.67;;
58760;SDS011;44529;47.464;19.014;2022-12-29T16:19:37;43.08;;;31.90;;
58760;SDS011;44529;47.464;19.014;2022-12-29T16:22:46;50.10;;;32.75;;
58760;SDS011;44529;47.464;19.014;2022-12-29T16:25:50;46.40;;;33.70;;
58760;SDS011;44529;47.464;19.014;2022-12-29T16:29:00;44.85;;;33.13;;
58760;SDS011;44529;47.464;19.014;2022-12-29T16:32:23;47.08;;;31.35;;
58760;SDS011;44529;47.464;19.014;2022-12-29T16:35:28;46.00;;;32.25;;
58760;SDS011;44529;47.464;19.014;2022-12-29T16:38:40;46.53;;;32.28;;
58760;SDS011;44529;47.464;19.014;2022-12-29T16:41:44;46.10;;;32.88;;
58760;SDS011;44529;47.464;19.014;2022-12-29T16:44:46;49.03;;;33.13;;
58760;SDS011;44529;47.464;19.014;2022-12-29T16:51:12;48.05;;;33.72;;
58760;SDS011;44529;47.464;19.014;2022-12-29T16:54:18;48.72;;;33.60;;
58760;SDS011;44529;47.464;19.014;2022-12-29T16:57:42;50.15;;;33.30;;
58760;SDS011;44529;47.464;19.014;2022-12-29T17:00:46;50.12;;;34.97;;
58760;SDS011;44529;47.464;19.014;2022-12-29T17:03:51;47.83;;;33.90;;
58760;SDS011;44529;47.464;19.014;2022-12-29T17:06:56;48.92;;;33.90;;
58760;SDS011;44529;47.464;19.014;2022-12-29T17:09:59;55.70;;;36.22;;
58760;SDS011;44529;47.464;19.014;2022-12-29T17:13:01;51.45;;;35.50;;
58760;SDS011;44529;47.464;19.014;2022-12-29T17:16:04;54.80;;;34.88;;
58760;SDS011;44529;47.464;19.014;2022-12-29T17:19:18;55.25;;;36.78;;
58760;SDS011;44529;47.464;19.014;2022-12-29T17:22:23;49.35;;;35.30;;
58760;SDS011;44529;47.464;19.014;2022-12-29T17:25:35;56.15;;;36.22;;
58760;SDS011;44529;47.464;19.014;2022-12-29T17:28:39;55.10;;;35.50;;
58760;SDS011;44529;47.464;19.014;2022-12-29T17:31:41;51.60;;;35.67;;
58760;SDS011;44529;47.464;19.014;2022-12-29T17:34:43;53.42;;;36.03;;
58760;SDS011;44529;47.464;19.014;2022-12-29T17:37:46;51.00;;;34.47;;
58760;SDS011;44529;47.464;19.014;2022-12-29T17:40:49;49.70;;;35.05;;
58760;SDS011;44529;47.464;19.014;2022-12-29T17:43:52;48.80;;;35.55;;
58760;SDS011;44529;47.464;19.014;2022-12-29T17:46:54;53.08;;;35.10;;
58760;SDS011;44529;47.464;19.014;2022-12-29T17:49:57;52.30;;;36.90;;
58760;SDS011;44529;47.464;19.014;2022-12-29T17:53:01;52.03;;;35.35;;
58760;SDS011;44529;47.464;19.014;2022-12-29T17:56:05;55.35;;;36.90;;
58760;SDS011;44529;47.464;19.014;2022-12-29T17:59:10;53.17;;;36.15;;
58760;SDS011;44529;47.464;19.014;2022-12-29T18:05:29;52.33;;;36.38;;
58760;SDS011;44529;47.464;19.014;2022-12-29T18:08:32;53.70;;;35.65;;
58760;SDS011;44529;47.464;19.014;2022-12-29T18:11:40;54.50;;;36.35;;
58760;SDS011;44529;47.464;19.014;2022-12-29T18:14:44;51.28;;;34.95;;
58760;SDS011;44529;47.464;19.014;2022-12-29T18:17:46;51.60;;;36.00;;
58760;SDS011;44529;47.464;19.014;2022-12-29T18:20:50;48.60;;;34.83;;
58760;SDS011;44529;47.464;19.014;2022-12-29T18:23:54;50.12;;;34.58;;
58760;SDS011;44529;47.464;19.014;2022-12-29T18:26:56;48.42;;;35.15;;
58760;SDS011;44529;47.464;19.014;2022-12-29T18:29:59;47.75;;;34.03;;
58760;SDS011;44529;47.464;19.014;2022-12-29T18:33:01;49.50;;;33.58;;
58760;SDS011;44529;47.464;19.014;2022-12-29T18:36:04;47.88;;;33.80;;
58760;SDS011;44529;47.464;19.014;2022-12-29T18:39:06;53.38;;;34.60;;
58760;SDS011;44529;47.464;19.014;2022-12-29T18:42:09;47.80;;;34.20;;
58760;SDS011;44529;47.464;19.014;2022-12-29T18:45:19;50.85;;;34.42;;
58760;SDS011;44529;47.464;19.014;2022-12-29T18:48:23;48.97;;;34.33;;
58760;SDS011;44529;47.464;19.014;2022-12-29T18:51:25;51.03;;;34.38;;
58760;SDS011;44529;47.464;19.014;2022-12-29T18:54:29;48.47;;;32.92;;
58760;SDS011;44529;47.464;19.014;2022-12-29T18:57:33;48.92;;;33.65;;
58760;SDS011;44529;47.464;19.014;2022-12-29T19:00:35;48.33;;;33.75;;
58760;SDS011;44529;47.464;19.014;2022-12-29T19:03:38;52.62;;;33.78;;
58760;SDS011;44529;47.464;19.014;2022-12-29T19:06:40;47.65;;;33.17;;
58760;SDS011;44529;47.464;19.014;2022-12-29T19:09:43;49.15;;;34.35;;
58760;SDS011;44529;47.464;19.014;2022-12-29T19:12:46;48.47;;;32.67;;
58760;SDS011;44529;47.464;19.014;2022-12-29T19:15:49;51.20;;;34.15;;
58760;SDS011;44529;47.464;19.014;2022-12-29T19:18:52;53.50;;;34.05;;
58760;SDS011;44529;47.464;19.014;2022-12-29T19:22:10;48.13;;;32.80;;
58760;SDS011;44529;47.464;19.014;2022-12-29T19:25:13;40.97;;;31.37;;
58760;SDS011;44529;47.464;19.014;2022-12-29T19:28:16;47.10;;;31.92;;
58760;SDS011;44529;47.464;19.014;2022-12-29T19:31:21;50.03;;;33.72;;
58760;SDS011;44529;47.464;19.014;2022-12-29T19:34:24;46.65;;;30.67;;
58760;SDS011;44529;47.464;19.014;2022-12-29T19:37:26;47.22;;;32.35;;
58760;SDS011;44529;47.464;19.014;2022-12-29T19:40:28;50.28;;;32.80;;
58760;SDS011;44529;47.464;19.014;2022-12-29T19:43:31;44.03;;;31.48;;
58760;SDS011;44529;47.464;19.014;2022-12-29T19:46:33;44.10;;;31.70;;
58760;SDS011;44529;47.464;19.014;2022-12-29T19:49:36;47.80;;;33.05;;
58760;SDS011;44529;47.464;19.014;2022-12-29T19:52:38;44.97;;;31.75;;
58760;SDS011;44529;47.464;19.014;2022-12-29T19:55:44;47.85;;;31.40;;